createdAt,value
2023-01-29T00:04:46.652Z,102997.69
2023-01-29T00:10:09.119Z,102997.03
2023-01-29T00:15:30.795Z,103000.59
2023-01-29T00:20:52.524Z,103000.31
2023-01-29T00:26:15.047Z,102979.56
2023-01-29T00:31:36.954Z,102976.16
2023-01-29T00:37:05.130Z,102976.72
2023-01-29T00:42:45.429Z,102979.00
2023-01-29T00:48:07.224Z,102967.44
2023-01-29T00:53:29.611Z,102956.75
2023-01-29T00:58:51.346Z,102936.22
2023-01-29T01:04:13.601Z,102931.06
2023-01-29T01:09:55.206Z,102937.00
2023-01-29T01:15:18.035Z,102931.19
2023-01-29T01:20:40.148Z,102923.06
2023-01-29T01:26:01.928Z,102925.38
2023-01-29T01:31:23.753Z,102931.31
2023-01-29T01:36:45.770Z,102936.16
2023-01-29T01:42:13.299Z,102931.69
2023-01-29T01:47:43.808Z,102933.78
2023-01-29T01:53:11.031Z,102945.28
2023-01-29T01:58:38.395Z,102948.59
2023-01-29T02:04:45.275Z,102957.09
2023-01-29T02:10:14.153Z,102947.28
2023-01-29T02:15:36.106Z,102950.41
2023-01-29T02:21:31.475Z,102958.94
2023-01-29T02:27:00.393Z,102962.06
2023-01-29T02:32:34.512Z,102969.69
2023-01-29T02:38:01.819Z,102970.06
2023-01-29T02:43:47.579Z,102972.16
2023-01-29T02:49:22.028Z,102958.53
2023-01-29T02:54:53.023Z,102970.84
2023-01-29T03:00:18.772Z,102954.63
2023-01-29T03:05:43.604Z,102943.91
2023-01-29T03:11:07.320Z,102949.66
2023-01-29T03:16:44.095Z,102948.13
2023-01-29T03:22:08.650Z,102956.81
2023-01-29T03:27:55.266Z,102963.41
2023-01-29T03:33:19.537Z,102958.19
2023-01-29T03:38:41.405Z,102948.38
2023-01-29T03:44:22.112Z,102949.22
2023-01-29T03:50:25.693Z,102938.56
2023-01-29T03:56:07.276Z,102936.16
2023-01-29T04:01:45.287Z,102932.72
2023-01-29T04:07:17.655Z,102925.66
2023-01-29T04:12:45.963Z,102935.00
2023-01-29T04:18:07.691Z,102926.88
2023-01-29T04:23:29.411Z,102912.41
2023-01-29T04:29:16.636Z,102905.13
2023-01-29T04:35:03.484Z,102901.69
2023-01-29T04:40:40.604Z,102897.94
2023-01-29T04:46:02.504Z,102901.59
2023-01-29T04:52:00.619Z,102891.38
2023-01-29T04:57:29.824Z,102882.44
2023-01-29T05:02:51.739Z,102890.22
2023-01-29T05:08:16.370Z,102875.53
2023-01-29T05:13:41.931Z,102870.00
2023-01-29T05:19:03.745Z,102850.19
2023-01-29T05:24:26.947Z,102846.53
2023-01-29T05:29:48.804Z,102844.81
2023-01-29T05:35:10.494Z,102858.84
2023-01-29T05:40:32.248Z,102860.94
2023-01-29T05:46:01.099Z,102860.09
2023-01-29T05:51:23.208Z,102851.13
2023-01-29T05:56:44.866Z,102858.75
2023-01-29T06:02:06.743Z,102845.97
2023-01-29T06:07:28.452Z,102858.28
2023-01-29T06:12:50.233Z,102860.16
2023-01-29T06:18:11.941Z,102867.97
2023-01-29T06:23:33.745Z,102867.13
2023-01-29T06:28:55.495Z,102880.94
2023-01-29T06:34:17.244Z,102873.88
2023-01-29T06:39:38.927Z,102866.09
2023-01-29T06:45:00.920Z,102867.81
2023-01-29T06:50:22.789Z,102871.47
2023-01-29T06:55:51.015Z,102874.53
2023-01-29T07:01:25.447Z,102852.59
2023-01-29T07:06:55.135Z,102830.72
2023-01-29T07:12:16.879Z,102824.84
2023-01-29T07:17:39.631Z,102808.63
2023-01-29T07:23:01.394Z,102831.28
2023-01-29T07:28:23.128Z,102834.66
2023-01-29T07:33:45.072Z,102824.31
2023-01-29T07:39:06.749Z,102831.72
2023-01-29T07:44:28.524Z,102828.59
2023-01-29T07:49:50.207Z,102832.91
2023-01-29T07:55:11.935Z,102821.28
2023-01-29T08:00:33.714Z,102818.59
2023-01-29T08:05:55.416Z,102826.16
2023-01-29T08:11:17.355Z,102823.53
2023-01-29T08:16:39.189Z,102834.16
2023-01-29T08:22:01.439Z,102827.69
2023-01-29T08:27:23.180Z,102819.81
2023-01-29T08:32:44.920Z,102815.19
2023-01-29T08:38:06.898Z,102814.34
2023-01-29T08:43:28.565Z,102794.63
2023-01-29T08:48:50.296Z,102806.19
2023-01-29T08:54:11.993Z,102805.75
2023-01-29T08:59:33.706Z,102803.19
2023-01-29T09:04:56.007Z,102817.28
2023-01-29T09:10:17.814Z,102816.47
2023-01-29T09:15:39.500Z,102813.88
2023-01-29T09:21:02.789Z,102804.25
2023-01-29T09:26:24.608Z,102800.19
2023-01-29T09:31:46.697Z,102798.28
2023-01-29T09:37:08.515Z,102809.19
2023-01-29T09:42:48.789Z,102816.44
2023-01-29T09:48:12.786Z,102826.69
2023-01-29T09:53:46.169Z,102810.41
2023-01-29T09:59:12.830Z,102811.19
2023-01-29T10:05:03.463Z,102804.28
2023-01-29T10:10:40.084Z,102795.47
2023-01-29T10:16:41.742Z,102782.81
2023-01-29T10:22:21.454Z,102791.31
2023-01-29T10:27:49.960Z,102782.66
2023-01-29T10:33:25.520Z,102788.56
2023-01-29T10:38:49.357Z,102791.75
2023-01-29T10:44:32.020Z,102788.25
2023-01-29T10:50:15.737Z,102774.00
2023-01-29T10:56:22.672Z,102771.94
2023-01-29T11:01:45.171Z,102756.50
2023-01-29T11:07:07.040Z,102751.03
2023-01-29T11:12:33.593Z,102732.94
2023-01-29T11:18:13.458Z,102715.88
2023-01-29T11:23:35.138Z,102695.78
2023-01-29T11:28:57.150Z,102691.16
2023-01-29T11:34:22.166Z,102683.00
2023-01-29T11:39:47.361Z,102670.22
2023-01-29T11:45:30.086Z,102662.06
2023-01-29T11:51:00.736Z,102649.91
2023-01-29T11:56:27.238Z,102649.22
2023-01-29T12:01:48.980Z,102644.94
2023-01-29T12:07:18.785Z,102633.75
2023-01-29T12:12:43.210Z,102626.28
2023-01-29T12:18:20.309Z,102625.63
2023-01-29T12:24:02.237Z,102602.34
2023-01-29T12:29:48.136Z,102585.91
2023-01-29T12:35:22.672Z,102563.03
2023-01-29T12:40:55.376Z,102560.72
2023-01-29T12:46:29.519Z,102549.63
2023-01-29T12:51:54.753Z,102541.56
2023-01-29T12:57:32.276Z,102527.88
2023-01-29T13:03:03.755Z,102525.34
2023-01-29T13:08:32.722Z,102514.44
2023-01-29T13:13:59.612Z,102514.44
2023-01-29T13:19:28.620Z,102506.97
2023-01-29T13:25:03.640Z,102495.00
2023-01-29T13:30:32.933Z,102494.09
2023-01-29T13:36:00.380Z,102480.44
2023-01-29T13:41:33.450Z,102475.75
2023-01-29T13:46:58.171Z,102461.09
2023-01-29T13:52:37.002Z,102457.84
2023-01-29T13:58:00.688Z,102454.66
2023-01-29T14:03:25.113Z,102449.75
2023-01-29T14:08:47.635Z,102449.72
2023-01-29T14:14:48.321Z,102442.19
2023-01-29T14:20:20.685Z,102446.03
2023-01-29T14:25:43.037Z,102431.66
2023-01-29T14:31:07.675Z,102428.56
2023-01-29T14:36:38.529Z,102434.34
2023-01-29T14:42:03.193Z,102430.44
2023-01-29T14:47:27.680Z,102435.84
2023-01-29T14:52:54.117Z,102431.59
2023-01-29T14:58:26.302Z,102430.72
2023-01-29T15:03:55.621Z,102414.47
2023-01-29T15:09:41.995Z,102413.88
2023-01-29T15:15:09.880Z,102414.75
2023-01-29T15:20:36.895Z,102427.34
2023-01-29T15:26:04.870Z,102422.06
2023-01-29T15:31:28.629Z,102422.31
2023-01-29T15:36:51.185Z,102418.47
2023-01-29T15:42:23.659Z,102406.13
2023-01-29T15:47:45.426Z,102391.19
2023-01-29T15:53:13.147Z,102385.47
2023-01-29T15:58:35.146Z,102380.13
2023-01-29T16:04:01.249Z,102382.28
2023-01-29T16:09:26.303Z,102357.56
2023-01-29T16:14:50.656Z,102358.84
2023-01-29T16:20:45.693Z,102372.28
2023-01-29T16:26:09.643Z,102348.56
2023-01-29T16:31:32.752Z,102360.13
2023-01-29T16:36:56.360Z,102354.16
2023-01-29T16:42:20.209Z,102354.16
2023-01-29T16:47:42.062Z,102339.66
2023-01-29T16:53:12.504Z,102330.25
2023-01-29T16:58:34.988Z,102324.91
2023-01-29T17:04:03.126Z,102316.13
2023-01-29T17:09:29.978Z,102317.16
2023-01-29T17:15:00.875Z,102320.06
2023-01-29T17:20:23.371Z,102317.22
2023-01-29T17:25:46.574Z,102306.47
2023-01-29T17:31:08.842Z,102311.59
2023-01-29T17:36:30.724Z,102306.44
2023-01-29T17:41:54.522Z,102302.41
2023-01-29T17:47:16.258Z,102294.09
2023-01-29T17:52:37.930Z,102289.66
2023-01-29T17:57:59.656Z,102286.28
2023-01-29T18:03:21.696Z,102283.97
2023-01-29T18:08:43.416Z,102270.78
2023-01-29T18:14:13.541Z,102272.09
2023-01-29T18:19:36.227Z,102274.66
2023-01-29T18:24:57.913Z,102268.91
2023-01-29T18:30:19.696Z,102262.69
2023-01-29T18:35:41.364Z,102269.88
2023-01-29T18:41:12.352Z,102257.59
2023-01-29T18:46:34.092Z,102250.53
2023-01-29T18:51:55.936Z,102235.91
2023-01-29T18:58:27.713Z,102228.16
2023-01-29T19:02:59.697Z,102229.81
2023-01-29T19:08:21.364Z,102220.44
2023-01-29T19:13:43.200Z,102207.56
2023-01-29T19:19:04.894Z,102200.94
2023-01-29T19:24:27.695Z,102186.41
2023-01-29T19:29:49.395Z,102189.94
2023-01-29T19:35:11.169Z,102186.53
2023-01-29T19:40:32.936Z,102158.78
2023-01-29T19:46:01.156Z,102152.47
2023-01-29T19:51:23.503Z,102150.41
2023-01-29T19:56:45.636Z,102125.50
2023-01-29T20:02:07.406Z,102112.19
2023-01-29T20:07:29.142Z,102115.22
2023-01-29T20:12:51.386Z,102099.97
2023-01-29T20:18:14.382Z,102105.22
2023-01-29T20:23:38.644Z,102113.28
2023-01-29T20:29:00.535Z,102114.00
2023-01-29T20:34:22.505Z,102114.41
2023-01-29T20:39:44.187Z,102106.06
2023-01-29T20:45:06.458Z,102114.50
2023-01-29T20:50:28.411Z,102122.72
2023-01-29T20:55:50.138Z,102112.72
2023-01-29T21:01:16.914Z,102110.41
2023-01-29T21:06:38.675Z,102103.63
2023-01-29T21:12:00.517Z,102092.94
2023-01-29T21:17:22.229Z,102099.50
2023-01-29T21:22:44.232Z,102091.28
2023-01-29T21:28:06.418Z,102102.81
2023-01-29T21:33:28.179Z,102111.56
2023-01-29T21:38:49.915Z,102117.88
2023-01-29T21:44:12.453Z,102104.91
2023-01-29T21:49:34.213Z,102081.84
2023-01-29T21:54:56.126Z,102082.44
2023-01-29T22:00:18.867Z,102089.19
2023-01-29T22:05:40.912Z,102103.13
2023-01-29T22:11:07.208Z,102113.25
2023-01-29T22:16:30.033Z,102092.97
2023-01-29T22:21:53.117Z,102069.19
2023-01-29T22:27:15.499Z,102035.16
2023-01-29T22:32:37.470Z,102000.84
2023-01-29T22:37:59.310Z,101986.25
2023-01-29T22:43:22.131Z,101968.44
2023-01-29T22:48:43.979Z,101988.66
2023-01-29T22:54:05.713Z,102020.59
2023-01-29T22:59:28.069Z,102011.50
2023-01-29T23:04:50.513Z,102024.84
2023-01-29T23:10:14.832Z,102008.66
2023-01-29T23:15:36.710Z,101988.69
2023-01-29T23:20:58.584Z,101946.22
2023-01-29T23:26:39.304Z,101948.00
2023-01-29T23:32:00.995Z,101948.31
2023-01-29T23:37:22.920Z,101936.63
2023-01-29T23:42:44.727Z,101953.97
2023-01-29T23:48:06.698Z,101932.66
2023-01-29T23:53:28.422Z,101918.03
2023-01-29T23:58:56.875Z,101921.25
